Aérodrome :
LOGIN :

S'inscrire | Disclaimer

   EN    FR    IT 

 










Légende :    VFR   VFR Marginal   IFR   IFR Intensif   IFR Très Intensif
Visi : 
Plafond : 
>= 8 km
>= 3000ft
5 à 8 km
1000 à 3000 ft
1500m à 5 km
500 à 1000 ft
800 à 1500m
200 à 500 ft
< 800m
< 200 ft
Symboles :   Orages  Brouillard  Fortes neiges  Fortes précipitations  Vent > 20 kt
SIGMETs :   Divers  Orages  Givrage  Turbulence  Onde Orograph.  Cendres Volcan.






- Altitude de l'aérodrome : 909 ft
- Code IATA : KSF


EDVK - Kassel Calden

DERNIER METAR :
  • 171920Z 23006KT 9999 -RA BKN024 OVC040 07/05 Q1016

METARs EXPIRÉS :
  • 171850Z 21007KT 190V250 9999 -RA SCT026 OVC030 07/05 Q1016
  • 171820Z 19006KT 150V230 9000 -RADZ SCT032 BKN039 07/05 Q1015
  • 171750Z 20006KT 170V230 9999 -RA SCT033 BKN041 07/05 Q1015
  • 171720Z 21008KT 9999 -RA BKN033 08/04 Q1015
  • 171650Z 20009KT 9999 FEW023 BKN047 08/04 Q1015

TAF TAF EDVK
Valide du 17 à 18h jusqu'au 18 à 03h UTC


171700Z 1718/1803 21008KT 9999 BKN030
TEMPO 1718/1803 4500 -RADZ BKN010



MET'MAP, la Météo Aéronautique d'un coup d'oeil ! - Copyright ORBIFLY Décembre 2007 - Disclaimer

ORBIFLY MET'MAP TEAM :

Programmation & Développement : Alexandra Zaïnal
Sur une idée originale de : Baudouin d'Aumeries
Assistance à la programmation : Marc-Olivier Méhu
Soutien technique & logistique : Manuel Goepfert

Contact : metmap@orbifly.com




SOURCES & CREDITS :

   NOAA